createdAt,value
2022-08-17T00:01:24.187Z,83.53
2022-08-17T00:05:31.543Z,83.87
2022-08-17T00:09:33.601Z,83.80
2022-08-17T00:13:41.682Z,83.83
2022-08-17T00:17:47.177Z,84.00
2022-08-17T00:22:31.451Z,84.73
2022-08-17T00:26:14.294Z,84.98
2022-08-17T00:30:16.069Z,84.89
2022-08-17T00:34:18.017Z,85.14
2022-08-17T00:38:20.270Z,85.54
2022-08-17T00:42:21.877Z,85.42
2022-08-17T00:46:30.388Z,85.96
2022-08-17T00:50:32.458Z,85.85
2022-08-17T00:54:41.833Z,86.12
2022-08-17T00:58:44.651Z,85.99
2022-08-17T01:02:47.824Z,86.10
2022-08-17T01:06:50.963Z,86.36
2022-08-17T01:10:57.254Z,86.80
2022-08-17T01:15:05.906Z,86.79
2022-08-17T01:19:17.028Z,86.98
2022-08-17T01:23:21.351Z,86.99
2022-08-17T01:27:24.477Z,87.05
2022-08-17T01:31:30.627Z,86.90
2022-08-17T01:35:32.258Z,86.75
2022-08-17T01:39:42.237Z,87.02
2022-08-17T01:43:49.723Z,86.98
2022-08-17T01:47:52.964Z,87.02
2022-08-17T01:51:55.189Z,86.59
2022-08-17T01:56:08.518Z,87.01
2022-08-17T02:00:10.875Z,86.58
2022-08-17T02:04:12.822Z,86.91
2022-08-17T02:08:20.026Z,86.63
2022-08-17T02:12:39.340Z,86.48
2022-08-17T02:16:41.913Z,86.57
2022-08-17T02:20:43.819Z,85.58
2022-08-17T02:24:58.798Z,84.87
2022-08-17T02:29:04.166Z,84.01
2022-08-17T02:33:09.399Z,84.70
2022-08-17T02:37:11.136Z,84.57
2022-08-17T02:41:13.034Z,84.72
2022-08-17T02:45:20.812Z,84.67
2022-08-17T02:49:22.375Z,85.59
2022-08-17T02:53:23.995Z,85.24
2022-08-17T02:57:27.243Z,85.32
2022-08-17T03:01:29.103Z,85.55
2022-08-17T03:05:33.869Z,86.03
2022-08-17T03:09:35.559Z,86.38
2022-08-17T03:13:37.412Z,87.02
2022-08-17T03:17:39.254Z,87.32
2022-08-17T03:21:40.910Z,87.83
2022-08-17T03:25:44.100Z,88.02
2022-08-17T03:29:45.967Z,88.61
2022-08-17T03:33:48.173Z,89.15
2022-08-17T03:37:56.961Z,89.51
2022-08-17T03:42:32.278Z,89.76
2022-08-17T03:46:52.923Z,89.81
2022-08-17T03:51:15.313Z,90.36
2022-08-17T03:55:36.329Z,90.55
2022-08-17T03:59:39.462Z,91.18
2022-08-17T04:03:42.603Z,91.84
2022-08-17T04:07:44.275Z,92.37
2022-08-17T04:11:45.856Z,92.45
2022-08-17T04:15:49.170Z,92.69
2022-08-17T04:19:50.933Z,93.32
2022-08-17T04:23:52.752Z,93.99
2022-08-17T04:27:55.034Z,94.31
2022-08-17T04:31:58.075Z,94.43
2022-08-17T04:36:02.119Z,94.76
2022-08-17T04:40:23.034Z,95.40
2022-08-17T04:44:36.950Z,95.82
2022-08-17T04:48:43.515Z,96.46
2022-08-17T04:52:46.384Z,97.12
2022-08-17T04:56:48.290Z,96.98
2022-08-17T05:00:50.168Z,96.79
2022-08-17T05:04:51.850Z,97.05
2022-08-17T05:08:54.845Z,97.73
2022-08-17T05:13:11.811Z,97.95
2022-08-17T05:17:13.553Z,98.17
2022-08-17T05:21:15.899Z,98.52
2022-08-17T05:25:24.957Z,98.65
2022-08-17T05:29:35.289Z,98.23
2022-08-17T05:33:44.291Z,98.04
2022-08-17T05:37:46.938Z,98.11
2022-08-17T05:41:48.649Z,98.59
2022-08-17T05:46:03.370Z,98.65
2022-08-17T05:50:09.435Z,99.16
2022-08-17T05:54:26.609Z,99.59
2022-08-17T05:58:49.479Z,99.50
2022-08-17T06:03:24.317Z,100.00
2022-08-17T06:07:37.793Z,100.00
2022-08-17T06:11:47.872Z,100.00
2022-08-17T06:16:04.702Z,99.69
2022-08-17T06:20:36.016Z,99.67
2022-08-17T06:24:58.993Z,99.30
2022-08-17T06:29:04.350Z,99.50
2022-08-17T06:33:21.169Z,99.65
2022-08-17T06:37:48.818Z,99.93
2022-08-17T06:41:59.244Z,100.00
2022-08-17T06:46:10.891Z,100.00
2022-08-17T06:50:22.091Z,100.00
2022-08-17T06:54:39.871Z,100.00
2022-08-17T06:58:44.199Z,100.00
2022-08-17T07:03:10.438Z,100.00
2022-08-17T07:07:31.733Z,100.00
2022-08-17T07:11:50.476Z,100.00
2022-08-17T07:15:57.146Z,100.00
2022-08-17T07:20:09.346Z,100.00
2022-08-17T07:24:28.134Z,100.00
2022-08-17T07:28:33.805Z,100.00
2022-08-17T07:32:57.816Z,100.00
2022-08-17T07:37:05.537Z,100.00
2022-08-17T07:41:10.680Z,100.00
2022-08-17T07:45:34.476Z,100.00
2022-08-17T07:49:42.506Z,100.00
2022-08-17T07:53:45.245Z,99.84
2022-08-17T07:57:55.668Z,99.69
2022-08-17T08:02:08.069Z,99.66
2022-08-17T08:06:24.398Z,99.26
2022-08-17T08:10:27.603Z,98.53
2022-08-17T08:14:38.357Z,98.05
2022-08-17T08:18:54.253Z,98.07
2022-08-17T08:23:03.442Z,97.70
2022-08-17T08:27:37.413Z,97.58
2022-08-17T08:31:57.779Z,97.36
2022-08-17T08:36:08.236Z,96.87
2022-08-17T08:40:39.235Z,96.14
2022-08-17T08:45:01.302Z,95.59
2022-08-17T08:49:45.173Z,95.53
2022-08-17T08:54:11.128Z,95.97
2022-08-17T08:58:41.840Z,95.67
2022-08-17T09:02:43.991Z,95.34
2022-08-17T09:06:57.232Z,95.48
2022-08-17T09:11:08.279Z,94.66
2022-08-17T09:15:28.507Z,94.57
2022-08-17T09:19:57.122Z,94.92
2022-08-17T09:24:02.403Z,95.01
2022-08-17T09:28:14.200Z,94.77
2022-08-17T09:32:42.203Z,93.95
2022-08-17T09:36:51.849Z,93.43
2022-08-17T09:41:02.975Z,92.98
2022-08-17T09:45:24.088Z,91.98
2022-08-17T09:49:33.681Z,91.32
2022-08-17T09:53:37.222Z,90.70
2022-08-17T09:57:59.027Z,90.36
2022-08-17T10:02:28.475Z,90.12
2022-08-17T10:06:37.830Z,89.79
2022-08-17T10:10:56.435Z,89.39
2022-08-17T10:15:27.574Z,89.41
2022-08-17T10:19:39.727Z,89.95
2022-08-17T10:24:09.155Z,89.56
2022-08-17T10:28:20.246Z,90.20
2022-08-17T10:32:33.513Z,89.76
2022-08-17T10:36:46.197Z,89.98
2022-08-17T10:41:01.219Z,90.03
2022-08-17T10:45:17.442Z,90.22
2022-08-17T10:49:19.038Z,90.22
2022-08-17T10:53:32.641Z,90.73
2022-08-17T10:57:38.848Z,90.37
2022-08-17T11:01:43.363Z,91.21
2022-08-17T11:05:54.094Z,91.08
2022-08-17T11:10:17.886Z,90.90
2022-08-17T11:15:08.424Z,91.36
2022-08-17T11:19:35.700Z,91.04
2022-08-17T11:24:08.386Z,91.60
2022-08-17T11:28:22.038Z,91.43
2022-08-17T11:32:47.079Z,91.15
2022-08-17T11:37:01.989Z,91.54
2022-08-17T11:41:03.602Z,91.51
2022-08-17T11:45:31.657Z,91.87
2022-08-17T11:50:17.325Z,92.16
2022-08-17T11:54:33.731Z,92.79
2022-08-17T11:58:37.861Z,92.77
2022-08-17T12:02:48.164Z,93.51
2022-08-17T12:07:13.254Z,93.64
2022-08-17T12:11:58.789Z,93.60
2022-08-17T12:15:49.655Z,93.83
2022-08-17T12:19:53.052Z,93.93
2022-08-17T12:24:14.991Z,94.14
2022-08-17T12:28:36.583Z,94.67
2022-08-17T12:32:40.559Z,95.13
2022-08-17T12:36:42.416Z,95.56
2022-08-17T12:40:54.662Z,95.69
2022-08-17T12:45:00.154Z,95.90
2022-08-17T12:49:35.635Z,96.35
2022-08-17T12:53:37.342Z,96.61
2022-08-17T12:57:38.921Z,96.79
2022-08-17T13:01:42.246Z,96.91
2022-08-17T13:05:54.483Z,97.05
2022-08-17T13:09:56.202Z,97.65
2022-08-17T13:14:09.507Z,98.07
2022-08-17T13:18:33.612Z,98.46
2022-08-17T13:22:35.318Z,98.27
2022-08-17T13:26:49.116Z,98.47
2022-08-17T13:30:50.727Z,98.38
2022-08-17T13:35:11.931Z,98.13
2022-08-17T13:39:22.904Z,98.70
2022-08-17T13:43:45.301Z,98.48
2022-08-17T13:47:47.095Z,98.33
2022-08-17T13:51:51.510Z,98.38
2022-08-17T13:56:37.531Z,98.61
2022-08-17T14:00:36.765Z,98.36
2022-08-17T14:04:41.419Z,98.56
2022-08-17T14:08:43.045Z,98.44
2022-08-17T14:12:46.828Z,98.82
2022-08-17T14:16:50.222Z,98.31
2022-08-17T14:20:53.288Z,98.47
2022-08-17T14:24:54.923Z,98.36
2022-08-17T14:28:57.134Z,98.17
2022-08-17T14:32:59.537Z,98.26
2022-08-17T14:37:01.144Z,97.63
2022-08-17T14:41:03.048Z,97.23
2022-08-17T14:45:07.022Z,97.52
2022-08-17T14:49:30.265Z,96.75
2022-08-17T14:53:32.156Z,96.68
2022-08-17T14:57:34.627Z,96.59
2022-08-17T15:01:36.827Z,96.34
2022-08-17T15:05:39.497Z,96.62
2022-08-17T15:09:41.108Z,95.96
2022-08-17T15:13:53.107Z,96.00
2022-08-17T15:17:55.093Z,95.89
2022-08-17T15:21:57.021Z,95.62
2022-08-17T15:25:58.829Z,95.02
2022-08-17T15:30:01.907Z,94.92
2022-08-17T15:34:05.302Z,94.83
2022-08-17T15:38:12.345Z,94.32
2022-08-17T15:42:14.680Z,93.87
2022-08-17T15:46:20.378Z,93.69
2022-08-17T15:50:22.120Z,94.10
2022-08-17T15:54:23.776Z,93.74
2022-08-17T15:58:29.849Z,93.67
2022-08-17T16:03:44.837Z,94.17
2022-08-17T16:06:57.577Z,94.20
2022-08-17T16:10:59.633Z,93.95
2022-08-17T16:15:02.507Z,94.20
2022-08-17T16:19:04.129Z,94.28
2022-08-17T16:23:05.865Z,94.47
2022-08-17T16:27:12.523Z,94.20
2022-08-17T16:31:14.582Z,94.50
2022-08-17T16:35:16.970Z,94.19
2022-08-17T16:39:18.650Z,94.52
2022-08-17T16:43:20.300Z,94.24
2022-08-17T16:47:22.597Z,94.67
2022-08-17T16:51:24.776Z,94.58
2022-08-17T16:55:26.579Z,94.71
2022-08-17T16:59:30.446Z,94.57
2022-08-17T17:03:34.733Z,94.78
2022-08-17T17:07:40.222Z,95.41
2022-08-17T17:11:47.739Z,95.32
2022-08-17T17:15:58.987Z,95.79
2022-08-17T17:20:11.251Z,95.75
2022-08-17T17:24:36.856Z,95.97
2022-08-17T17:28:56.971Z,96.41
2022-08-17T17:33:29.772Z,96.98
2022-08-17T17:37:38.012Z,97.04
2022-08-17T17:41:54.069Z,96.87
2022-08-17T17:46:26.580Z,97.06
2022-08-17T17:50:34.628Z,97.12
2022-08-17T17:55:01.055Z,97.44
2022-08-17T17:59:18.516Z,97.62
2022-08-17T18:03:46.145Z,97.11
2022-08-17T18:07:59.204Z,97.38
2022-08-17T18:12:11.236Z,97.04
2022-08-17T18:16:14.400Z,97.39
2022-08-17T18:20:35.934Z,96.85
2022-08-17T18:24:57.160Z,96.93
2022-08-17T18:29:00.458Z,96.64
2022-08-17T18:33:23.680Z,96.42
2022-08-17T18:37:36.031Z,95.92
2022-08-17T18:41:47.014Z,96.03
2022-08-17T18:45:52.185Z,96.30
2022-08-17T18:50:27.384Z,96.49
2022-08-17T18:54:29.072Z,96.07
2022-08-17T18:58:30.789Z,96.03
2022-08-17T19:02:45.270Z,96.57
2022-08-17T19:07:03.507Z,96.40
2022-08-17T19:11:16.834Z,95.78
2022-08-17T19:15:30.094Z,95.78
2022-08-17T19:19:49.329Z,95.75
2022-08-17T19:24:01.365Z,95.41
2022-08-17T19:28:15.397Z,95.65
2022-08-17T19:32:32.069Z,95.19
2022-08-17T19:36:52.926Z,95.18
2022-08-17T19:41:06.704Z,94.73
2022-08-17T19:45:08.371Z,94.95
2022-08-17T19:49:22.666Z,94.71
2022-08-17T19:54:05.790Z,94.83
2022-08-17T19:58:17.954Z,95.02
2022-08-17T20:02:42.526Z,94.87
2022-08-17T20:06:49.232Z,94.70
2022-08-17T20:10:57.004Z,94.69
2022-08-17T20:15:04.892Z,94.61
2022-08-17T20:19:32.771Z,95.26
2022-08-17T20:23:59.811Z,95.07
2022-08-17T20:28:29.569Z,94.95
2022-08-17T20:32:55.344Z,95.01
2022-08-17T20:37:08.783Z,94.71
2022-08-17T20:41:20.956Z,95.05
2022-08-17T20:45:26.168Z,94.74
2022-08-17T20:49:45.670Z,94.83
2022-08-17T20:53:47.211Z,95.00
2022-08-17T20:57:49.024Z,95.14
2022-08-17T21:02:20.675Z,95.22
2022-08-17T21:06:25.027Z,95.37
2022-08-17T21:10:26.539Z,94.98
2022-08-17T21:14:58.644Z,94.91
2022-08-17T21:19:09.867Z,95.12
2022-08-17T21:23:21.066Z,94.49
2022-08-17T21:28:00.531Z,94.73
2022-08-17T21:32:05.418Z,94.44
2022-08-17T21:36:15.151Z,94.44
2022-08-17T21:40:27.132Z,94.43
2022-08-17T21:44:35.185Z,94.69
2022-08-17T21:48:49.296Z,94.54
2022-08-17T21:52:57.209Z,94.37
2022-08-17T21:57:02.310Z,93.58
2022-08-17T22:01:19.389Z,93.35
2022-08-17T22:05:30.513Z,93.53
2022-08-17T22:09:40.404Z,93.39
2022-08-17T22:13:42.044Z,93.70
2022-08-17T22:17:46.759Z,93.54
2022-08-17T22:22:03.253Z,93.28
2022-08-17T22:26:09.680Z,93.10
2022-08-17T22:30:31.996Z,93.22
2022-08-17T22:34:33.662Z,93.67
2022-08-17T22:38:35.652Z,93.56
2022-08-17T22:42:49.716Z,93.43
2022-08-17T22:46:54.456Z,93.87
2022-08-17T22:51:12.469Z,93.91
2022-08-17T22:55:36.267Z,94.15
2022-08-17T22:59:41.489Z,94.30
2022-08-17T23:03:54.715Z,94.51
2022-08-17T23:07:56.376Z,94.51
2022-08-17T23:11:58.780Z,94.38
2022-08-17T23:16:00.498Z,94.54
2022-08-17T23:20:02.778Z,94.59
2022-08-17T23:24:08.786Z,94.14
2022-08-17T23:28:11.334Z,94.15
2022-08-17T23:32:15.826Z,94.44
2022-08-17T23:36:17.548Z,94.77
2022-08-17T23:40:19.226Z,94.94
2022-08-17T23:44:24.294Z,94.83
2022-08-17T23:48:34.961Z,95.14
2022-08-17T23:52:41.236Z,94.79
2022-08-17T23:56:48.405Z,95.11
